createdAt,value
2023-03-19T00:00:27.147Z,82.90
2023-03-19T00:02:53.602Z,82.94
2023-03-19T00:05:20.353Z,83.19
2023-03-19T00:07:46.761Z,83.29
2023-03-19T00:10:13.297Z,83.64
2023-03-19T00:12:39.754Z,83.87
2023-03-19T00:15:08.893Z,84.20
2023-03-19T00:17:35.881Z,84.16
2023-03-19T00:20:02.541Z,84.37
2023-03-19T00:22:28.897Z,84.46
2023-03-19T00:24:55.375Z,84.73
2023-03-19T00:27:21.743Z,84.75
2023-03-19T00:29:48.089Z,84.69
2023-03-19T00:32:14.672Z,84.76
2023-03-19T00:34:41.817Z,84.85
2023-03-19T00:37:08.902Z,84.86
2023-03-19T00:39:35.421Z,84.61
2023-03-19T00:42:02.037Z,84.27
2023-03-19T00:44:28.463Z,84.22
2023-03-19T00:46:54.913Z,83.89
2023-03-19T00:49:21.279Z,83.62
2023-03-19T00:51:47.759Z,83.46
2023-03-19T00:54:14.286Z,83.21
2023-03-19T00:56:41.082Z,83.16
2023-03-19T00:59:07.758Z,82.65
2023-03-19T01:01:34.665Z,82.30
2023-03-19T01:04:01.428Z,82.48
2023-03-19T01:06:28.025Z,82.56
2023-03-19T01:08:54.384Z,82.66
2023-03-19T01:11:20.937Z,82.47
2023-03-19T01:13:47.965Z,82.84
2023-03-19T01:16:14.419Z,83.00
2023-03-19T01:18:41.135Z,82.94
2023-03-19T01:21:08.249Z,83.10
2023-03-19T01:23:34.642Z,83.23
2023-03-19T01:26:01.108Z,83.69
2023-03-19T01:28:27.520Z,83.61
2023-03-19T01:30:58.745Z,83.85
2023-03-19T01:33:25.783Z,83.84
2023-03-19T01:35:52.175Z,84.46
2023-03-19T01:38:19.642Z,84.31
2023-03-19T01:40:47.479Z,85.30
2023-03-19T01:43:18.462Z,85.90
2023-03-19T01:45:45.883Z,86.39
2023-03-19T01:48:33.056Z,86.54
2023-03-19T01:51:00.801Z,86.48
2023-03-19T01:53:31.621Z,86.52
2023-03-19T01:56:11.566Z,86.11
2023-03-19T01:58:40.087Z,86.78
2023-03-19T02:01:06.486Z,86.83
2023-03-19T02:03:33.940Z,87.25
2023-03-19T02:06:00.978Z,87.22
2023-03-19T02:08:28.790Z,87.28
2023-03-19T02:11:00.045Z,87.57
2023-03-19T02:13:27.800Z,87.80
2023-03-19T02:15:55.045Z,88.14
2023-03-19T02:18:21.924Z,88.57
2023-03-19T02:20:56.917Z,89.13
2023-03-19T02:24:02.336Z,89.23
2023-03-19T02:26:30.786Z,89.57
2023-03-19T02:28:57.134Z,89.64
2023-03-19T02:31:23.765Z,89.48
2023-03-19T02:34:11.971Z,89.46
2023-03-19T02:36:44.240Z,89.33
2023-03-19T02:39:21.469Z,89.23
2023-03-19T02:41:48.921Z,88.93
2023-03-19T02:44:19.804Z,88.98
2023-03-19T02:46:46.441Z,88.61
2023-03-19T02:49:13.100Z,88.68
2023-03-19T02:51:39.534Z,88.05
2023-03-19T02:54:06.216Z,87.46
2023-03-19T02:56:32.726Z,87.42
2023-03-19T02:58:59.212Z,87.20
2023-03-19T03:01:25.869Z,87.00
2023-03-19T03:03:52.276Z,86.57
2023-03-19T03:06:18.707Z,86.74
2023-03-19T03:08:45.392Z,86.59
2023-03-19T03:11:11.781Z,86.31
2023-03-19T03:13:38.218Z,86.05
2023-03-19T03:16:04.872Z,85.80
2023-03-19T03:18:31.326Z,85.54
2023-03-19T03:20:57.982Z,85.79
2023-03-19T03:23:24.390Z,85.90
2023-03-19T03:25:52.021Z,85.39
2023-03-19T03:28:19.271Z,85.07
2023-03-19T03:30:46.605Z,84.65
2023-03-19T03:33:13.103Z,85.03
2023-03-19T03:35:39.679Z,84.57
2023-03-19T03:38:06.669Z,84.56
2023-03-19T03:40:34.471Z,84.21
2023-03-19T03:43:01.270Z,84.07
2023-03-19T03:45:27.693Z,84.28
2023-03-19T03:47:54.204Z,84.19
2023-03-19T03:50:20.819Z,83.83
2023-03-19T03:52:47.850Z,83.75
2023-03-19T03:55:14.390Z,83.75
2023-03-19T03:57:40.915Z,83.31
2023-03-19T04:00:08.057Z,83.31
2023-03-19T04:02:34.513Z,83.29
2023-03-19T04:05:01.043Z,83.38
2023-03-19T04:07:27.933Z,83.36
2023-03-19T04:09:55.196Z,83.56
2023-03-19T04:12:21.815Z,83.52
2023-03-19T04:14:48.324Z,83.11
2023-03-19T04:17:14.668Z,83.30
2023-03-19T04:19:41.145Z,83.08
2023-03-19T04:22:08.419Z,83.11
2023-03-19T04:24:35.087Z,83.00
2023-03-19T04:27:01.510Z,82.75
2023-03-19T04:29:27.890Z,82.67
2023-03-19T04:31:54.314Z,82.53
2023-03-19T04:34:20.958Z,82.40
2023-03-19T04:36:47.362Z,82.48
2023-03-19T04:39:13.670Z,82.87
2023-03-19T04:41:40.160Z,82.98
2023-03-19T04:44:07.603Z,82.90
2023-03-19T04:46:34.079Z,82.96
2023-03-19T04:49:00.472Z,83.63
2023-03-19T04:51:27.311Z,83.37
2023-03-19T04:53:53.703Z,83.53
2023-03-19T04:56:20.256Z,83.45
2023-03-19T04:58:46.657Z,83.43
2023-03-19T05:01:13.465Z,83.17
2023-03-19T05:03:40.002Z,83.64
2023-03-19T05:06:06.779Z,83.44
2023-03-19T05:08:33.117Z,83.53
2023-03-19T05:10:59.472Z,83.38
2023-03-19T05:13:25.840Z,83.19
2023-03-19T05:15:54.978Z,83.58
2023-03-19T05:18:21.522Z,84.03
2023-03-19T05:20:48.255Z,84.00
2023-03-19T05:23:14.786Z,83.69
2023-03-19T05:25:41.467Z,83.50
2023-03-19T05:28:08.218Z,83.57
2023-03-19T05:30:35.599Z,83.61
2023-03-19T05:33:03.815Z,83.18
2023-03-19T05:35:30.812Z,83.10
2023-03-19T05:37:57.857Z,82.94
2023-03-19T05:40:24.936Z,82.76
2023-03-19T05:42:51.454Z,83.05
2023-03-19T05:45:18.205Z,82.95
2023-03-19T05:47:47.309Z,83.03
2023-03-19T05:50:13.914Z,83.16
2023-03-19T05:52:40.318Z,83.08
2023-03-19T05:55:07.066Z,83.19
2023-03-19T05:57:33.400Z,82.94
2023-03-19T05:59:59.756Z,83.08
2023-03-19T06:02:26.170Z,83.19
2023-03-19T06:04:52.663Z,83.30
2023-03-19T06:07:19.040Z,83.40
2023-03-19T06:09:45.418Z,83.29
2023-03-19T06:12:11.922Z,83.38
2023-03-19T06:14:38.239Z,83.25
2023-03-19T06:17:04.605Z,83.56
2023-03-19T06:19:31.028Z,83.57
2023-03-19T06:21:57.510Z,83.82
2023-03-19T06:24:23.921Z,83.77
2023-03-19T06:26:50.244Z,83.50
2023-03-19T06:29:16.607Z,83.41
2023-03-19T06:31:43.031Z,83.52
2023-03-19T06:34:09.536Z,83.36
2023-03-19T06:36:35.875Z,83.62
2023-03-19T06:39:03.081Z,83.60
2023-03-19T06:41:29.775Z,83.39
2023-03-19T06:43:56.182Z,83.41
2023-03-19T06:46:23.205Z,83.28
2023-03-19T06:48:49.719Z,83.40
2023-03-19T06:51:16.217Z,83.33
2023-03-19T06:53:42.581Z,83.41
2023-03-19T06:56:10.248Z,83.59
2023-03-19T06:58:36.942Z,83.33
2023-03-19T07:01:03.887Z,83.49
2023-03-19T07:03:30.634Z,83.38
2023-03-19T07:05:57.076Z,83.53
2023-03-19T07:08:23.615Z,83.29
2023-03-19T07:10:50.093Z,83.02
2023-03-19T07:13:16.426Z,83.65
2023-03-19T07:15:42.804Z,83.40
2023-03-19T07:18:09.244Z,83.65
2023-03-19T07:20:36.246Z,83.52
2023-03-19T07:23:03.255Z,83.52
2023-03-19T07:25:29.701Z,83.47
2023-03-19T07:27:56.270Z,83.31
2023-03-19T07:30:22.726Z,83.41
2023-03-19T07:32:49.138Z,83.79
2023-03-19T07:35:15.551Z,83.48
2023-03-19T07:37:42.133Z,83.59
2023-03-19T07:40:09.875Z,83.76
2023-03-19T07:42:36.507Z,83.75
2023-03-19T07:45:04.440Z,83.86
2023-03-19T07:47:30.876Z,84.07
2023-03-19T07:49:58.034Z,83.80
2023-03-19T07:52:25.862Z,84.08
2023-03-19T07:54:52.938Z,84.09
2023-03-19T07:57:19.758Z,84.13
2023-03-19T07:59:46.466Z,83.76
2023-03-19T08:02:13.251Z,84.16
2023-03-19T08:04:40.142Z,83.86
2023-03-19T08:07:06.863Z,84.04
2023-03-19T08:09:34.044Z,83.67
2023-03-19T08:12:00.387Z,83.50
2023-03-19T08:14:26.847Z,83.51
2023-03-19T08:16:53.278Z,83.65
2023-03-19T08:19:19.664Z,83.31
2023-03-19T08:21:46.492Z,83.70
2023-03-19T08:24:12.912Z,83.15
2023-03-19T08:26:39.358Z,83.37
2023-03-19T08:29:06.492Z,83.22
2023-03-19T08:31:33.030Z,82.90
2023-03-19T08:34:10.234Z,82.64
2023-03-19T08:36:37.087Z,82.73
2023-03-19T08:39:04.190Z,82.43
2023-03-19T08:41:31.172Z,82.45
2023-03-19T08:43:57.501Z,82.45
2023-03-19T08:46:23.844Z,82.36
2023-03-19T08:48:50.278Z,82.05
2023-03-19T08:51:16.631Z,82.37
2023-03-19T08:53:43.027Z,82.10
2023-03-19T08:56:09.369Z,81.95
2023-03-19T08:58:35.946Z,82.00
2023-03-19T09:01:05.128Z,82.65
2023-03-19T09:03:32.201Z,82.63
2023-03-19T09:06:01.130Z,82.34
2023-03-19T09:08:28.632Z,82.35
2023-03-19T09:10:56.162Z,81.92
2023-03-19T09:13:23.276Z,81.94
2023-03-19T09:15:50.716Z,81.86
2023-03-19T09:18:18.229Z,81.63
2023-03-19T09:20:45.245Z,81.71
2023-03-19T09:23:11.717Z,81.17
2023-03-19T09:25:38.086Z,80.98
2023-03-19T09:28:04.681Z,81.12
2023-03-19T09:30:31.786Z,81.22
2023-03-19T09:32:58.324Z,80.89
2023-03-19T09:35:24.943Z,80.51
2023-03-19T09:37:52.127Z,80.63
2023-03-19T09:40:33.652Z,80.06
2023-03-19T09:43:33.480Z,79.49
2023-03-19T09:46:03.366Z,79.35
2023-03-19T09:48:46.887Z,79.29
2023-03-19T09:51:26.000Z,79.34
2023-03-19T09:54:02.773Z,79.37
2023-03-19T09:56:30.507Z,79.24
2023-03-19T09:58:56.918Z,79.18
2023-03-19T10:01:47.425Z,79.07
2023-03-19T10:04:37.408Z,79.42
2023-03-19T10:07:18.846Z,79.00
2023-03-19T10:10:18.321Z,78.82
2023-03-19T10:12:53.944Z,79.08
2023-03-19T10:15:31.028Z,79.02
2023-03-19T10:18:02.693Z,79.05
2023-03-19T10:20:35.411Z,79.06
2023-03-19T10:23:37.470Z,78.88
2023-03-19T10:26:08.726Z,78.58
2023-03-19T10:28:36.372Z,78.67
2023-03-19T10:31:25.863Z,78.57
2023-03-19T10:34:07.710Z,78.96
2023-03-19T10:36:36.169Z,78.80
2023-03-19T10:39:06.905Z,79.00
2023-03-19T10:41:56.566Z,78.81
2023-03-19T10:44:34.417Z,78.81
2023-03-19T10:47:11.811Z,78.86
2023-03-19T10:49:38.308Z,79.27
2023-03-19T10:52:06.032Z,79.09
2023-03-19T10:54:32.382Z,79.09
2023-03-19T10:57:00.359Z,79.18
2023-03-19T10:59:29.699Z,79.45
2023-03-19T11:02:17.736Z,80.35
2023-03-19T11:04:44.299Z,80.71
2023-03-19T11:07:14.136Z,81.69
2023-03-19T11:09:44.151Z,81.93
2023-03-19T11:12:18.804Z,82.17
2023-03-19T11:14:53.898Z,82.56
2023-03-19T11:17:27.482Z,82.31
2023-03-19T11:19:59.104Z,81.83
2023-03-19T11:22:28.466Z,81.72
2023-03-19T11:25:02.322Z,81.17
2023-03-19T11:27:35.111Z,81.13
2023-03-19T11:30:03.979Z,80.78
2023-03-19T11:32:46.622Z,80.56
2023-03-19T11:35:19.854Z,80.52
2023-03-19T11:37:51.912Z,79.58
2023-03-19T11:40:34.109Z,79.08
2023-03-19T11:43:11.774Z,78.79
2023-03-19T11:45:56.686Z,79.05
2023-03-19T11:49:00.737Z,78.80
2023-03-19T11:51:40.204Z,78.36
2023-03-19T11:54:25.293Z,78.89
2023-03-19T11:57:00.271Z,79.04
2023-03-19T11:59:56.261Z,79.53
2023-03-19T12:02:32.372Z,79.52
2023-03-19T12:05:01.759Z,79.88
2023-03-19T12:08:20.031Z,79.72
2023-03-19T12:10:59.062Z,79.93
2023-03-19T12:13:34.634Z,79.31
2023-03-19T12:16:19.903Z,78.90
2023-03-19T12:18:59.769Z,78.16
2023-03-19T12:21:34.943Z,77.68
2023-03-19T12:24:15.146Z,76.42
2023-03-19T12:27:04.286Z,76.21
2023-03-19T12:30:18.211Z,75.85
2023-03-19T12:33:03.305Z,74.62
2023-03-19T12:35:37.566Z,72.36
2023-03-19T12:38:25.447Z,71.50
2023-03-19T12:41:07.757Z,71.12
2023-03-19T12:43:54.353Z,70.99
2023-03-19T12:46:30.026Z,70.07
2023-03-19T12:49:14.230Z,69.29
2023-03-19T12:51:46.171Z,69.34
2023-03-19T12:54:23.683Z,69.26
2023-03-19T12:57:18.083Z,67.64
2023-03-19T13:00:07.050Z,67.57
2023-03-19T13:02:54.468Z,67.30
2023-03-19T13:05:52.989Z,67.14
2023-03-19T13:08:33.369Z,67.45
2023-03-19T13:11:02.763Z,65.86
2023-03-19T13:14:02.089Z,65.62
2023-03-19T13:17:13.529Z,67.14
2023-03-19T13:19:53.969Z,67.83
2023-03-19T13:22:32.789Z,67.98
2023-03-19T13:25:01.656Z,67.62
2023-03-19T13:27:34.004Z,67.26
2023-03-19T13:30:07.864Z,67.06
2023-03-19T13:32:47.894Z,67.59
2023-03-19T13:35:28.541Z,67.01
2023-03-19T13:38:00.117Z,66.53
2023-03-19T13:40:38.244Z,66.47
2023-03-19T13:43:04.708Z,67.21
2023-03-19T13:45:38.266Z,68.03
2023-03-19T13:48:35.993Z,68.19
2023-03-19T13:51:27.214Z,67.92
2023-03-19T13:54:16.344Z,68.11
2023-03-19T13:57:05.806Z,68.28
2023-03-19T13:59:37.703Z,68.47
2023-03-19T14:02:24.158Z,69.79
2023-03-19T14:04:57.284Z,70.72
2023-03-19T14:07:42.319Z,70.98
2023-03-19T14:10:31.711Z,71.27
2023-03-19T14:13:06.967Z,72.08
2023-03-19T14:15:35.241Z,72.65
2023-03-19T14:18:05.790Z,71.43
2023-03-19T14:20:40.509Z,71.33
2023-03-19T14:23:17.879Z,71.49
2023-03-19T14:26:12.364Z,72.16
2023-03-19T14:28:44.715Z,72.08
2023-03-19T14:31:35.190Z,70.04
2023-03-19T14:34:16.579Z,68.68
2023-03-19T14:36:48.909Z,68.54
2023-03-19T14:39:27.899Z,66.88
2023-03-19T14:42:24.461Z,65.51
2023-03-19T14:45:14.269Z,63.42
2023-03-19T14:47:55.500Z,61.88
2023-03-19T14:50:26.172Z,61.54
2023-03-19T14:52:58.278Z,62.01
2023-03-19T14:55:34.323Z,63.46
2023-03-19T14:58:02.067Z,64.64
2023-03-19T15:00:28.706Z,65.52
2023-03-19T15:02:56.114Z,66.73
2023-03-19T15:05:27.602Z,67.92
2023-03-19T15:08:12.265Z,69.28
2023-03-19T15:10:54.954Z,70.11
2023-03-19T15:13:30.521Z,70.68
2023-03-19T15:16:20.206Z,71.35
2023-03-19T15:18:46.663Z,72.19
2023-03-19T15:21:13.106Z,72.29
2023-03-19T15:23:41.699Z,73.04
2023-03-19T15:26:11.637Z,73.77
2023-03-19T15:28:54.011Z,74.41
2023-03-19T15:31:38.363Z,75.89
2023-03-19T15:34:27.859Z,77.30
2023-03-19T15:37:07.905Z,78.57
2023-03-19T15:39:41.722Z,80.04
2023-03-19T15:42:08.619Z,81.54
2023-03-19T15:44:58.217Z,83.75
2023-03-19T15:47:29.830Z,85.14
2023-03-19T15:50:01.784Z,86.25
2023-03-19T15:52:33.460Z,86.62
2023-03-19T15:55:02.232Z,88.74
2023-03-19T15:57:29.150Z,90.58
2023-03-19T15:59:59.007Z,92.13
2023-03-19T16:02:33.569Z,92.51
2023-03-19T16:05:21.055Z,92.81
2023-03-19T16:07:54.829Z,93.21
2023-03-19T16:10:31.382Z,93.65
2023-03-19T16:13:03.766Z,94.33
2023-03-19T16:15:40.492Z,93.51
2023-03-19T16:18:23.143Z,95.05
2023-03-19T16:21:07.203Z,96.41
2023-03-19T16:23:40.924Z,96.52
2023-03-19T16:26:23.076Z,97.02
2023-03-19T16:29:00.193Z,97.16
2023-03-19T16:31:31.847Z,97.39
2023-03-19T16:33:58.345Z,97.35
2023-03-19T16:36:29.968Z,96.84
2023-03-19T16:39:24.327Z,96.71
2023-03-19T16:42:10.953Z,96.69
2023-03-19T16:44:42.094Z,96.67
2023-03-19T16:47:11.042Z,96.78
2023-03-19T16:49:37.493Z,97.38
2023-03-19T16:52:05.288Z,97.54
2023-03-19T16:54:31.843Z,98.01
2023-03-19T16:56:58.238Z,98.28
2023-03-19T16:59:29.148Z,98.16
2023-03-19T17:01:55.822Z,97.33
2023-03-19T17:04:23.733Z,97.15
2023-03-19T17:06:50.602Z,97.14
2023-03-19T17:09:16.986Z,97.28
2023-03-19T17:11:43.977Z,97.80
2023-03-19T17:14:18.424Z,98.14
2023-03-19T17:16:50.357Z,98.65
2023-03-19T17:19:34.405Z,98.94
2023-03-19T17:22:01.796Z,99.28
2023-03-19T17:24:37.366Z,99.61
2023-03-19T17:27:04.458Z,99.63
2023-03-19T17:29:31.615Z,99.50
2023-03-19T17:32:01.788Z,99.46
2023-03-19T17:34:32.947Z,99.60
2023-03-19T17:37:01.412Z,99.62
2023-03-19T17:39:31.937Z,99.77
2023-03-19T17:41:59.139Z,100.00
2023-03-19T17:44:25.821Z,100.00
2023-03-19T17:46:54.118Z,100.00
2023-03-19T17:49:28.960Z,100.00
2023-03-19T17:51:56.377Z,100.00
2023-03-19T17:54:22.756Z,100.00
2023-03-19T17:56:49.516Z,100.00
2023-03-19T17:59:15.866Z,100.00
2023-03-19T18:01:47.009Z,100.00
2023-03-19T18:04:16.122Z,100.00
2023-03-19T18:06:46.408Z,100.00
2023-03-19T18:09:22.230Z,100.00
2023-03-19T18:11:48.732Z,100.00
2023-03-19T18:14:15.563Z,100.00
2023-03-19T18:16:42.683Z,100.00
2023-03-19T18:19:37.207Z,100.00
2023-03-19T18:22:14.857Z,100.00
2023-03-19T18:24:41.534Z,100.00
2023-03-19T18:27:08.077Z,100.00
2023-03-19T18:29:34.427Z,100.00
2023-03-19T18:32:11.520Z,100.00
2023-03-19T18:34:38.195Z,100.00
2023-03-19T18:37:04.768Z,100.00
2023-03-19T18:39:32.765Z,100.00
2023-03-19T18:41:59.102Z,100.00
2023-03-19T18:44:25.622Z,100.00
2023-03-19T18:46:51.963Z,100.00
2023-03-19T18:49:26.506Z,100.00
2023-03-19T18:52:02.649Z,100.00
2023-03-19T18:54:33.344Z,100.00
2023-03-19T18:57:01.816Z,100.00
2023-03-19T18:59:32.886Z,100.00
2023-03-19T19:02:25.087Z,100.00
2023-03-19T19:04:51.424Z,100.00
2023-03-19T19:07:17.925Z,100.00
2023-03-19T19:09:44.400Z,100.00
2023-03-19T19:12:18.297Z,100.00
2023-03-19T19:14:45.724Z,100.00
2023-03-19T19:17:21.286Z,100.00
2023-03-19T19:19:47.726Z,100.00
2023-03-19T19:22:16.332Z,100.00
2023-03-19T19:24:43.903Z,100.00
2023-03-19T19:27:17.387Z,100.00
2023-03-19T19:29:43.977Z,100.00
2023-03-19T19:32:32.275Z,100.00
2023-03-19T19:34:58.681Z,100.00
2023-03-19T19:37:25.311Z,100.00
2023-03-19T19:39:52.246Z,100.00
2023-03-19T19:42:21.148Z,100.00
2023-03-19T19:44:53.228Z,100.00
2023-03-19T19:47:19.629Z,100.00
2023-03-19T19:49:46.175Z,100.00
2023-03-19T19:52:17.962Z,100.00
2023-03-19T19:54:45.592Z,100.00
2023-03-19T19:57:24.440Z,100.00
2023-03-19T19:59:51.731Z,100.00
2023-03-19T20:02:26.793Z,100.00
2023-03-19T20:04:53.634Z,100.00
2023-03-19T20:07:20.620Z,100.00
2023-03-19T20:09:47.957Z,100.00
2023-03-19T20:12:24.627Z,100.00
2023-03-19T20:14:51.388Z,100.00
2023-03-19T20:17:20.726Z,100.00
2023-03-19T20:19:47.924Z,100.00
2023-03-19T20:22:14.352Z,100.00
2023-03-19T20:24:41.517Z,100.00
2023-03-19T20:27:31.345Z,100.00
2023-03-19T20:29:57.763Z,100.00
2023-03-19T20:32:33.449Z,100.00
2023-03-19T20:35:02.754Z,100.00
2023-03-19T20:37:30.046Z,100.00
2023-03-19T20:39:56.424Z,100.00
2023-03-19T20:42:23.412Z,100.00
2023-03-19T20:44:55.540Z,100.00
2023-03-19T20:47:22.061Z,100.00
2023-03-19T20:49:48.603Z,100.00
2023-03-19T20:52:16.287Z,100.00
2023-03-19T20:54:43.092Z,100.00
2023-03-19T20:57:14.776Z,100.00
2023-03-19T20:59:44.314Z,100.00
2023-03-19T21:02:19.477Z,100.00
2023-03-19T21:04:46.509Z,100.00
2023-03-19T21:07:23.600Z,100.00
2023-03-19T21:09:49.999Z,100.00
2023-03-19T21:12:36.763Z,100.00
2023-03-19T21:15:03.216Z,100.00
2023-03-19T21:17:29.635Z,100.00
2023-03-19T21:19:56.775Z,100.00
2023-03-19T21:22:28.495Z,100.00
2023-03-19T21:25:06.110Z,100.00
2023-03-19T21:27:35.645Z,100.00
2023-03-19T21:30:04.452Z,100.00
2023-03-19T21:32:31.932Z,100.00
2023-03-19T21:34:58.363Z,100.00
2023-03-19T21:37:24.764Z,100.00
2023-03-19T21:39:51.210Z,100.00
2023-03-19T21:42:22.519Z,100.00
2023-03-19T21:44:56.868Z,100.00
2023-03-19T21:47:23.253Z,100.00
2023-03-19T21:49:49.873Z,100.00
2023-03-19T21:52:18.770Z,100.00
2023-03-19T21:54:45.184Z,100.00
2023-03-19T21:57:16.432Z,100.00
2023-03-19T21:59:45.475Z,100.00
2023-03-19T22:02:27.059Z,100.00
2023-03-19T22:04:53.542Z,100.00
2023-03-19T22:07:20.025Z,100.00
2023-03-19T22:09:46.380Z,100.00
2023-03-19T22:12:25.896Z,100.00
2023-03-19T22:14:52.427Z,100.00
2023-03-19T22:17:26.478Z,100.00
2023-03-19T22:19:52.981Z,100.00
2023-03-19T22:22:19.419Z,100.00
2023-03-19T22:24:45.975Z,100.00
2023-03-19T22:27:16.158Z,100.00
2023-03-19T22:29:44.699Z,100.00
2023-03-19T22:32:18.657Z,100.00
2023-03-19T22:34:45.290Z,100.00
2023-03-19T22:37:28.450Z,100.00
2023-03-19T22:39:55.435Z,100.00
2023-03-19T22:42:24.751Z,100.00
2023-03-19T22:44:51.077Z,100.00
2023-03-19T22:47:24.654Z,100.00
2023-03-19T22:49:51.308Z,100.00
2023-03-19T22:52:18.103Z,100.00
2023-03-19T22:54:44.520Z,100.00
2023-03-19T22:57:17.283Z,100.00
2023-03-19T22:59:44.442Z,100.00
2023-03-19T23:02:14.653Z,100.00
2023-03-19T23:04:41.412Z,100.00
2023-03-19T23:07:12.639Z,100.00
2023-03-19T23:09:39.030Z,100.00
2023-03-19T23:12:07.365Z,100.00
2023-03-19T23:14:33.949Z,100.00
2023-03-19T23:17:06.686Z,100.00
2023-03-19T23:19:35.613Z,100.00
2023-03-19T23:22:04.989Z,100.00
2023-03-19T23:24:31.600Z,100.00
2023-03-19T23:26:59.835Z,99.49
2023-03-19T23:29:41.838Z,99.18
2023-03-19T23:32:10.635Z,98.74
2023-03-19T23:34:49.697Z,98.59
2023-03-19T23:37:24.391Z,98.28
2023-03-19T23:39:51.032Z,98.64
2023-03-19T23:42:27.792Z,98.03
2023-03-19T23:44:57.839Z,97.58
2023-03-19T23:47:24.306Z,97.80
2023-03-19T23:49:51.095Z,97.94
2023-03-19T23:52:17.523Z,98.10
2023-03-19T23:54:43.874Z,98.01
2023-03-19T23:57:15.475Z,98.04
2023-03-19T23:59:44.089Z,97.94
